createdAt,value
2022-07-28T00:00:51.601Z,27.63
2022-07-28T00:03:18.336Z,27.60
2022-07-28T00:05:47.204Z,27.65
2022-07-28T00:08:16.709Z,27.66
2022-07-28T00:10:43.374Z,27.57
2022-07-28T00:13:10.000Z,27.58
2022-07-28T00:15:36.617Z,27.48
2022-07-28T00:18:03.572Z,27.49
2022-07-28T00:20:30.908Z,27.57
2022-07-28T00:22:57.619Z,27.49
2022-07-28T00:25:30.204Z,27.47
2022-07-28T00:27:56.926Z,27.26
2022-07-28T00:30:23.520Z,27.22
2022-07-28T00:32:50.169Z,27.37
2022-07-28T00:35:16.876Z,27.58
2022-07-28T00:37:56.855Z,27.75
2022-07-28T00:40:43.399Z,27.85
2022-07-28T00:43:10.108Z,27.91
2022-07-28T00:45:36.771Z,27.92
2022-07-28T00:48:03.640Z,27.94
2022-07-28T00:50:30.432Z,27.99
2022-07-28T00:52:57.214Z,28.02
2022-07-28T00:55:23.860Z,28.08
2022-07-28T00:57:50.536Z,27.96
2022-07-28T01:00:17.217Z,27.15
2022-07-28T01:02:46.673Z,26.72
2022-07-28T01:05:14.879Z,26.50
2022-07-28T01:08:01.345Z,26.44
2022-07-28T01:10:35.136Z,26.34
2022-07-28T01:13:09.990Z,26.28
2022-07-28T01:15:44.790Z,26.05
2022-07-28T01:18:22.675Z,26.17
2022-07-28T01:21:09.160Z,26.13
2022-07-28T01:23:54.294Z,26.31
2022-07-28T01:26:38.839Z,26.20
2022-07-28T01:29:34.933Z,26.13
2022-07-28T01:32:06.776Z,26.28
2022-07-28T01:34:45.576Z,26.27
2022-07-28T01:37:19.788Z,26.15
2022-07-28T01:39:52.259Z,26.14
2022-07-28T01:42:18.942Z,26.12
2022-07-28T01:44:45.952Z,25.93
2022-07-28T01:47:12.659Z,25.94
2022-07-28T01:49:39.300Z,26.10
2022-07-28T01:52:07.093Z,26.08
2022-07-28T01:54:35.044Z,25.88
2022-07-28T01:57:01.717Z,25.77
2022-07-28T01:59:28.715Z,25.78
2022-07-28T02:02:00.276Z,25.88
2022-07-28T02:04:27.114Z,25.89
2022-07-28T02:06:54.241Z,25.83
2022-07-28T02:09:21.572Z,25.78
2022-07-28T02:11:48.635Z,25.80
2022-07-28T02:14:24.895Z,25.72
2022-07-28T02:16:59.114Z,25.72
2022-07-28T02:19:25.843Z,25.66
2022-07-28T02:21:52.576Z,25.60
2022-07-28T02:24:22.355Z,25.63
2022-07-28T02:26:51.275Z,25.61
2022-07-28T02:29:48.107Z,25.60
2022-07-28T02:32:15.008Z,25.59
2022-07-28T02:34:54.355Z,25.72
2022-07-28T02:37:22.909Z,25.66
2022-07-28T02:39:58.666Z,25.65
2022-07-28T02:42:28.677Z,25.69
2022-07-28T02:45:03.292Z,25.74
2022-07-28T02:47:33.950Z,25.79
2022-07-28T02:50:01.972Z,25.82
2022-07-28T02:52:28.628Z,25.61
2022-07-28T02:54:55.608Z,25.58
2022-07-28T02:57:24.483Z,25.53
2022-07-28T02:59:51.480Z,25.53
2022-07-28T03:02:20.000Z,25.62
2022-07-28T03:05:18.856Z,25.49
2022-07-28T03:07:51.243Z,25.48
2022-07-28T03:10:32.921Z,25.46
2022-07-28T03:13:02.039Z,25.44
2022-07-28T03:15:28.813Z,25.54
2022-07-28T03:17:55.439Z,25.59
2022-07-28T03:20:22.064Z,25.70
2022-07-28T03:22:48.695Z,25.69
2022-07-28T03:25:27.125Z,25.35
2022-07-28T03:27:53.719Z,25.32
2022-07-28T03:30:22.969Z,25.31
2022-07-28T03:32:58.098Z,25.34
2022-07-28T03:35:24.916Z,25.38
2022-07-28T03:38:05.996Z,25.38
2022-07-28T03:40:32.643Z,25.39
2022-07-28T03:42:59.882Z,25.47
2022-07-28T03:45:26.727Z,25.41
2022-07-28T03:47:57.486Z,25.46
2022-07-28T03:50:25.053Z,25.48
2022-07-28T03:52:51.887Z,25.27
2022-07-28T03:55:18.743Z,25.25
2022-07-28T03:57:45.894Z,25.23
2022-07-28T04:00:13.075Z,25.22
2022-07-28T04:02:43.784Z,25.24
2022-07-28T04:05:11.790Z,25.28
2022-07-28T04:07:39.528Z,25.07
2022-07-28T04:10:07.665Z,24.92
2022-07-28T04:12:49.564Z,24.77
2022-07-28T04:15:16.336Z,24.98
2022-07-28T04:17:43.190Z,25.20
2022-07-28T04:20:10.344Z,25.01
2022-07-28T04:22:36.981Z,24.88
2022-07-28T04:25:04.296Z,24.93
2022-07-28T04:27:31.476Z,25.10
2022-07-28T04:29:58.160Z,25.16
2022-07-28T04:32:24.854Z,25.19
2022-07-28T04:34:51.629Z,25.23
2022-07-28T04:37:18.317Z,25.06
2022-07-28T04:39:45.824Z,25.09
2022-07-28T04:42:12.431Z,25.08
2022-07-28T04:44:42.410Z,25.10
2022-07-28T04:47:09.428Z,25.14
2022-07-28T04:49:36.110Z,24.95
2022-07-28T04:52:03.502Z,24.76
2022-07-28T04:54:30.378Z,24.86
2022-07-28T04:56:56.998Z,24.87
2022-07-28T04:59:23.750Z,24.90
2022-07-28T05:01:51.578Z,24.94
2022-07-28T05:04:18.953Z,24.93
2022-07-28T05:06:45.900Z,24.90
2022-07-28T05:09:12.499Z,25.07
2022-07-28T05:11:39.097Z,24.99
2022-07-28T05:14:05.707Z,24.82
2022-07-28T05:16:33.837Z,24.91
2022-07-28T05:19:00.828Z,24.88
2022-07-28T05:21:27.547Z,24.99
2022-07-28T05:23:54.273Z,25.03
2022-07-28T05:26:21.196Z,25.19
2022-07-28T05:28:47.892Z,25.53
2022-07-28T05:31:14.762Z,25.60
2022-07-28T05:33:41.622Z,25.31
2022-07-28T05:36:08.402Z,25.20
2022-07-28T05:38:35.008Z,25.14
2022-07-28T05:41:01.796Z,25.13
2022-07-28T05:43:28.582Z,25.21
2022-07-28T05:45:55.307Z,25.62
2022-07-28T05:48:22.087Z,25.99
2022-07-28T05:50:49.532Z,26.23
2022-07-28T05:53:16.332Z,26.38
2022-07-28T05:55:59.863Z,26.51
2022-07-28T05:58:28.099Z,26.58
2022-07-28T06:00:55.922Z,26.69
2022-07-28T06:03:22.687Z,26.73
2022-07-28T06:06:00.696Z,26.79
2022-07-28T06:08:37.140Z,26.83
2022-07-28T06:11:09.861Z,26.89
2022-07-28T06:13:36.796Z,26.98
2022-07-28T06:16:12.629Z,27.03
2022-07-28T06:18:39.907Z,27.05
2022-07-28T06:21:06.549Z,27.09
2022-07-28T06:23:33.213Z,27.12
2022-07-28T06:26:00.482Z,27.19
2022-07-28T06:28:27.126Z,27.19
2022-07-28T06:30:53.764Z,27.25
2022-07-28T06:33:20.342Z,27.29
2022-07-28T06:35:48.482Z,27.31
2022-07-28T06:38:20.183Z,27.33
2022-07-28T06:40:47.147Z,27.41
2022-07-28T06:43:14.766Z,27.45
2022-07-28T06:45:41.595Z,27.52
2022-07-28T06:48:08.870Z,27.60
2022-07-28T06:50:39.428Z,27.63
2022-07-28T06:53:06.368Z,27.72
2022-07-28T06:55:35.445Z,27.75
2022-07-28T06:58:05.699Z,27.82
2022-07-28T07:00:32.565Z,27.88
2022-07-28T07:03:00.771Z,27.90
2022-07-28T07:05:29.997Z,27.87
2022-07-28T07:07:59.335Z,27.82
2022-07-28T07:10:26.079Z,27.85
2022-07-28T07:12:53.814Z,27.91
2022-07-28T07:15:20.489Z,27.88
2022-07-28T07:17:47.103Z,27.85
2022-07-28T07:20:14.319Z,27.82
2022-07-28T07:22:45.847Z,27.81
2022-07-28T07:25:13.852Z,27.81
2022-07-28T07:27:40.465Z,27.83
2022-07-28T07:30:07.816Z,27.81
2022-07-28T07:32:34.502Z,27.82
2022-07-28T07:35:01.188Z,27.85
2022-07-28T07:37:27.833Z,27.85
2022-07-28T07:39:54.517Z,27.86
2022-07-28T07:42:21.109Z,27.90
2022-07-28T07:44:51.563Z,27.91
2022-07-28T07:47:18.609Z,27.95
2022-07-28T07:49:46.545Z,27.95
2022-07-28T07:52:13.875Z,27.95
2022-07-28T07:54:40.552Z,27.95
2022-07-28T07:57:10.316Z,27.95
2022-07-28T07:59:37.059Z,27.95
2022-07-28T08:02:03.884Z,27.98
2022-07-28T08:04:30.650Z,27.99
2022-07-28T08:06:57.303Z,27.96
2022-07-28T08:09:24.031Z,27.98
2022-07-28T08:11:50.757Z,27.99
2022-07-28T08:14:18.011Z,28.00
2022-07-28T08:16:44.997Z,27.99
2022-07-28T08:19:11.790Z,27.99
2022-07-28T08:21:38.580Z,28.01
2022-07-28T08:24:05.580Z,27.97
2022-07-28T08:26:32.332Z,28.00
2022-07-28T08:28:58.972Z,28.00
2022-07-28T08:31:25.697Z,28.01
2022-07-28T08:33:53.266Z,27.99
2022-07-28T08:36:21.423Z,27.98
2022-07-28T08:38:48.040Z,28.02
2022-07-28T08:41:19.096Z,28.03
2022-07-28T08:43:45.705Z,28.00
2022-07-28T08:46:12.443Z,28.02
2022-07-28T08:48:39.356Z,28.01
2022-07-28T08:51:11.151Z,28.05
2022-07-28T08:53:39.310Z,28.03
2022-07-28T08:56:10.211Z,28.04
2022-07-28T08:58:37.272Z,28.05
2022-07-28T09:01:04.576Z,28.05
2022-07-28T09:03:31.323Z,28.06
2022-07-28T09:05:58.102Z,28.07
2022-07-28T09:08:25.000Z,28.09
2022-07-28T09:10:51.729Z,28.06
2022-07-28T09:13:18.484Z,28.08
2022-07-28T09:15:46.476Z,28.10
2022-07-28T09:18:16.878Z,28.06
2022-07-28T09:20:44.133Z,28.09
2022-07-28T09:23:42.284Z,28.10
2022-07-28T09:26:11.257Z,28.08
2022-07-28T09:28:48.658Z,28.12
2022-07-28T09:31:16.641Z,28.11
2022-07-28T09:34:02.712Z,28.10
2022-07-28T09:36:30.415Z,28.12
2022-07-28T09:38:57.102Z,28.11
2022-07-28T09:41:23.971Z,28.11
2022-07-28T09:43:54.779Z,28.11
2022-07-28T09:46:24.265Z,28.11
2022-07-28T09:48:52.558Z,28.12
2022-07-28T09:51:21.450Z,28.13
2022-07-28T09:53:48.113Z,28.19
2022-07-28T09:56:15.009Z,28.18
2022-07-28T09:58:41.983Z,28.24
2022-07-28T10:01:13.934Z,28.21
2022-07-28T10:03:41.537Z,28.21
2022-07-28T10:06:08.591Z,28.23
2022-07-28T10:08:46.942Z,28.23
2022-07-28T10:11:15.189Z,28.25
2022-07-28T10:14:02.983Z,28.24
2022-07-28T10:16:31.632Z,28.24
2022-07-28T10:19:00.117Z,28.22
2022-07-28T10:21:27.299Z,28.22
2022-07-28T10:23:58.830Z,28.22
2022-07-28T10:26:30.053Z,28.25
2022-07-28T10:28:56.652Z,28.24
2022-07-28T10:31:29.823Z,28.27
2022-07-28T10:33:56.496Z,28.28
2022-07-28T10:36:23.865Z,28.29
2022-07-28T10:38:50.626Z,28.26
2022-07-28T10:41:17.290Z,28.28
2022-07-28T10:43:45.658Z,28.28
2022-07-28T10:46:16.032Z,28.28
2022-07-28T10:48:43.518Z,28.31
2022-07-28T10:51:10.326Z,28.31
2022-07-28T10:53:51.471Z,28.29
2022-07-28T10:56:21.659Z,28.31
2022-07-28T10:59:02.798Z,28.31
2022-07-28T11:01:53.858Z,28.32
2022-07-28T11:04:46.160Z,28.35
2022-07-28T11:07:14.117Z,28.35
2022-07-28T11:09:40.801Z,28.32
2022-07-28T11:12:09.879Z,28.34
2022-07-28T11:14:39.536Z,28.34
2022-07-28T11:17:10.805Z,28.36
2022-07-28T11:19:51.627Z,28.37
2022-07-28T11:22:31.990Z,28.36
2022-07-28T11:25:18.538Z,28.38
2022-07-28T11:27:51.184Z,28.36
2022-07-28T11:30:33.107Z,28.38
2022-07-28T11:33:00.295Z,28.38
2022-07-28T11:35:50.228Z,28.41
2022-07-28T11:38:17.290Z,28.30
2022-07-28T11:40:45.052Z,28.28
2022-07-28T11:43:36.774Z,28.19
2022-07-28T11:46:09.688Z,28.00
2022-07-28T11:48:49.599Z,27.94
2022-07-28T11:51:16.350Z,27.99
2022-07-28T11:53:44.658Z,28.01
2022-07-28T11:56:12.446Z,28.03
2022-07-28T11:58:39.777Z,27.99
2022-07-28T12:01:18.024Z,27.99
2022-07-28T12:03:55.002Z,27.96
2022-07-28T12:06:27.173Z,27.94
2022-07-28T12:09:00.514Z,27.89
2022-07-28T12:11:37.307Z,27.86
2022-07-28T12:14:07.924Z,27.98
2022-07-28T12:16:39.679Z,28.01
2022-07-28T12:19:06.886Z,27.98
2022-07-28T12:21:46.774Z,28.08
2022-07-28T12:24:19.434Z,28.16
2022-07-28T12:26:49.936Z,28.09
2022-07-28T12:29:16.855Z,27.99
2022-07-28T12:31:59.103Z,28.15
2022-07-28T12:34:29.683Z,28.08
2022-07-28T12:37:04.605Z,28.00
2022-07-28T12:39:34.214Z,28.02
2022-07-28T12:42:08.321Z,28.12
2022-07-28T12:44:47.569Z,28.08
2022-07-28T12:47:15.392Z,28.09
2022-07-28T12:49:42.798Z,28.06
2022-07-28T12:52:22.083Z,28.06
2022-07-28T12:54:53.721Z,28.07
2022-07-28T12:57:50.883Z,28.14
2022-07-28T13:00:29.560Z,28.14
2022-07-28T13:02:57.393Z,28.05
2022-07-28T13:05:31.530Z,28.10
2022-07-28T13:08:02.138Z,28.13
2022-07-28T13:10:30.203Z,28.14
2022-07-28T13:13:05.224Z,28.18
2022-07-28T13:15:31.994Z,28.18
2022-07-28T13:17:58.976Z,28.19
2022-07-28T13:20:25.953Z,28.19
2022-07-28T13:22:53.009Z,28.20
2022-07-28T13:25:19.999Z,28.17
2022-07-28T13:27:50.778Z,28.19
2022-07-28T13:30:21.119Z,28.22
2022-07-28T13:32:49.307Z,28.21
2022-07-28T13:35:16.052Z,28.24
2022-07-28T13:37:45.936Z,28.24
2022-07-28T13:40:12.955Z,28.23
2022-07-28T13:42:39.642Z,28.21
2022-07-28T13:45:06.745Z,28.23
2022-07-28T13:47:35.617Z,28.26
2022-07-28T13:50:06.683Z,28.23
2022-07-28T13:52:35.210Z,28.22
2022-07-28T13:55:06.154Z,28.21
2022-07-28T13:57:36.349Z,28.18
2022-07-28T14:00:07.618Z,28.10
2022-07-28T14:02:35.012Z,28.03
2022-07-28T14:05:01.768Z,27.97
2022-07-28T14:07:28.422Z,27.84
2022-07-28T14:09:55.175Z,27.68
2022-07-28T14:12:21.801Z,27.57
2022-07-28T14:14:49.049Z,27.45
2022-07-28T14:17:42.549Z,27.28
2022-07-28T14:20:04.271Z,27.34
2022-07-28T14:22:30.986Z,27.21
2022-07-28T14:24:57.601Z,27.17
2022-07-28T14:27:28.868Z,27.20
2022-07-28T14:29:55.888Z,27.18
2022-07-28T14:32:23.117Z,27.27
2022-07-28T14:34:50.497Z,27.37
2022-07-28T14:37:17.607Z,27.43
2022-07-28T14:39:44.375Z,27.50
2022-07-28T14:42:11.091Z,27.39
2022-07-28T14:44:37.669Z,27.38
2022-07-28T14:47:04.504Z,27.44
2022-07-28T14:49:31.261Z,27.43
2022-07-28T14:51:59.385Z,27.31
2022-07-28T14:54:27.098Z,27.49
2022-07-28T14:56:53.899Z,27.47
2022-07-28T14:59:20.796Z,27.49
2022-07-28T15:01:50.196Z,27.52
2022-07-28T15:04:18.173Z,27.53
2022-07-28T15:06:45.439Z,27.37
2022-07-28T15:09:12.125Z,27.33
2022-07-28T15:11:39.772Z,27.50
2022-07-28T15:14:06.460Z,27.53
2022-07-28T15:16:33.188Z,27.68
2022-07-28T15:19:02.535Z,27.75
2022-07-28T15:21:33.100Z,27.77
2022-07-28T15:24:03.291Z,27.78
2022-07-28T15:26:30.005Z,27.63
2022-07-28T15:28:56.671Z,27.54
2022-07-28T15:31:26.294Z,27.43
2022-07-28T15:33:57.978Z,27.36
2022-07-28T15:36:25.582Z,27.32
2022-07-28T15:38:53.004Z,27.24
2022-07-28T15:41:20.083Z,27.21
2022-07-28T15:43:46.994Z,27.16
2022-07-28T15:46:13.808Z,27.13
2022-07-28T15:48:42.133Z,27.24
2022-07-28T15:51:08.969Z,27.24
2022-07-28T15:53:35.845Z,27.27
2022-07-28T15:56:04.103Z,27.26
2022-07-28T15:58:33.336Z,27.35
2022-07-28T16:01:01.963Z,27.38
2022-07-28T16:03:29.365Z,27.32
2022-07-28T16:05:56.055Z,27.27
2022-07-28T16:08:23.308Z,27.25
2022-07-28T16:10:51.335Z,27.29
2022-07-28T16:13:28.596Z,27.30
2022-07-28T16:16:04.260Z,27.29
2022-07-28T16:18:32.117Z,27.31
2022-07-28T16:20:58.795Z,27.34
2022-07-28T16:23:27.848Z,27.35
2022-07-28T16:25:54.460Z,27.38
2022-07-28T16:28:22.318Z,27.53
2022-07-28T16:30:49.062Z,27.63
2022-07-28T16:33:17.230Z,27.65
2022-07-28T16:35:44.058Z,27.63
2022-07-28T16:38:11.538Z,27.63
2022-07-28T16:40:38.307Z,27.66
2022-07-28T16:43:06.233Z,27.72
2022-07-28T16:45:35.951Z,27.72
2022-07-28T16:48:03.815Z,27.75
2022-07-28T16:50:31.367Z,27.79
2022-07-28T16:52:58.672Z,27.82
2022-07-28T16:55:25.446Z,27.86
2022-07-28T16:57:52.616Z,27.86
2022-07-28T17:00:19.414Z,27.89
2022-07-28T17:02:46.060Z,27.88
2022-07-28T17:05:13.048Z,27.89
2022-07-28T17:07:45.322Z,27.88
2022-07-28T17:10:12.835Z,27.90
2022-07-28T17:12:39.466Z,27.92
2022-07-28T17:15:06.789Z,27.96
2022-07-28T17:17:49.146Z,27.99
2022-07-28T17:20:16.685Z,27.99
2022-07-28T17:22:46.435Z,28.00
2022-07-28T17:25:43.611Z,28.02
2022-07-28T17:27:59.782Z,28.01
2022-07-28T17:30:26.482Z,28.01
2022-07-28T17:32:57.149Z,28.04
2022-07-28T17:35:31.504Z,28.02
2022-07-28T17:38:01.474Z,28.05
2022-07-28T17:40:28.212Z,28.07
2022-07-28T17:42:54.805Z,28.09
2022-07-28T17:45:21.789Z,28.08
2022-07-28T17:47:48.428Z,28.10
2022-07-28T17:50:15.196Z,28.18
2022-07-28T17:52:42.595Z,28.24
2022-07-28T17:55:31.306Z,28.22
2022-07-28T17:58:02.690Z,28.18
2022-07-28T18:00:32.644Z,28.14
2022-07-28T18:03:03.003Z,28.15
2022-07-28T18:05:38.908Z,28.14
2022-07-28T18:08:07.459Z,28.13
2022-07-28T18:10:34.304Z,28.13
2022-07-28T18:13:03.161Z,28.13
2022-07-28T18:15:30.748Z,28.11
2022-07-28T18:17:57.611Z,28.12
2022-07-28T18:20:24.485Z,28.12
2022-07-28T18:22:51.207Z,28.15
2022-07-28T18:25:18.098Z,28.16
2022-07-28T18:27:44.916Z,28.18
2022-07-28T18:30:12.484Z,28.19
2022-07-28T18:32:40.114Z,28.21
2022-07-28T18:35:07.246Z,28.20
2022-07-28T18:37:33.872Z,28.21
2022-07-28T18:40:00.523Z,28.21
2022-07-28T18:42:27.461Z,28.19
2022-07-28T18:44:54.178Z,28.19
2022-07-28T18:47:20.801Z,28.21
2022-07-28T18:49:47.988Z,28.20
2022-07-28T18:52:14.642Z,28.21
2022-07-28T18:54:41.257Z,28.21
2022-07-28T18:57:10.991Z,28.23
2022-07-28T18:59:43.264Z,28.22
2022-07-28T19:02:11.544Z,28.25
2022-07-28T19:04:38.192Z,28.24
2022-07-28T19:07:04.899Z,28.22
2022-07-28T19:09:36.788Z,28.23
2022-07-28T19:12:04.235Z,28.26
2022-07-28T19:14:30.861Z,28.23
2022-07-28T19:16:57.774Z,28.24
2022-07-28T19:19:24.489Z,28.25
2022-07-28T19:21:51.299Z,28.26
2022-07-28T19:24:18.275Z,28.27
2022-07-28T19:26:46.027Z,28.26
2022-07-28T19:29:12.961Z,28.25
2022-07-28T19:31:41.417Z,28.24
2022-07-28T19:34:08.169Z,28.26
2022-07-28T19:36:36.299Z,28.27
2022-07-28T19:39:03.133Z,28.27
2022-07-28T19:41:31.396Z,28.27
2022-07-28T19:43:58.133Z,28.26
2022-07-28T19:46:24.918Z,27.81
2022-07-28T19:48:55.949Z,27.41
2022-07-28T19:51:22.754Z,27.33
2022-07-28T19:53:49.401Z,27.22
2022-07-28T19:56:17.422Z,27.23
2022-07-28T19:58:45.251Z,27.20
2022-07-28T20:01:11.949Z,27.03
2022-07-28T20:04:00.878Z,26.92
2022-07-28T20:06:25.517Z,26.91
2022-07-28T20:08:56.886Z,26.97
2022-07-28T20:11:23.545Z,26.92
2022-07-28T20:13:50.736Z,26.82
2022-07-28T20:16:17.755Z,26.49
2022-07-28T20:18:44.533Z,26.37
2022-07-28T20:21:11.284Z,26.56
2022-07-28T20:23:38.906Z,26.48
2022-07-28T20:26:05.576Z,26.66
2022-07-28T20:28:32.206Z,26.70
2022-07-28T20:30:58.883Z,26.68
2022-07-28T20:33:25.598Z,26.55
2022-07-28T20:35:53.286Z,26.56
2022-07-28T20:38:23.313Z,26.44
2022-07-28T20:40:51.061Z,26.43
2022-07-28T20:43:17.783Z,26.30
2022-07-28T20:45:47.719Z,26.13
2022-07-28T20:48:15.536Z,26.23
2022-07-28T20:50:42.338Z,25.75
2022-07-28T20:53:10.307Z,25.43
2022-07-28T20:55:37.286Z,25.45
2022-07-28T20:58:05.851Z,25.55
2022-07-28T21:00:32.816Z,25.70
2022-07-28T21:02:59.482Z,25.88
2022-07-28T21:05:34.836Z,25.89
2022-07-28T21:08:06.170Z,25.84
2022-07-28T21:10:33.680Z,25.80
2022-07-28T21:13:00.426Z,25.71
2022-07-28T21:15:27.076Z,25.72
2022-07-28T21:17:57.220Z,25.61
2022-07-28T21:20:24.256Z,25.48
2022-07-28T21:22:50.972Z,25.37
2022-07-28T21:25:17.625Z,25.36
2022-07-28T21:28:03.011Z,25.35
2022-07-28T21:30:29.821Z,25.34
2022-07-28T21:32:56.559Z,25.45
2022-07-28T21:35:23.573Z,25.34
2022-07-28T21:37:50.210Z,25.41
2022-07-28T21:40:16.829Z,25.26
2022-07-28T21:42:46.768Z,25.30
2022-07-28T21:45:13.465Z,25.32
2022-07-28T21:47:40.733Z,25.21
2022-07-28T21:50:07.815Z,25.14
2022-07-28T21:52:36.028Z,25.23
2022-07-28T21:55:02.732Z,25.12
2022-07-28T21:57:29.324Z,25.00
2022-07-28T21:59:56.019Z,24.92
2022-07-28T22:02:24.193Z,24.94
2022-07-28T22:04:52.584Z,25.02
2022-07-28T22:07:19.476Z,25.01
2022-07-28T22:09:46.137Z,24.98
2022-07-28T22:12:12.774Z,24.79
2022-07-28T22:14:39.375Z,24.81
2022-07-28T22:17:06.065Z,24.69
2022-07-28T22:19:32.680Z,24.68
2022-07-28T22:21:59.393Z,24.67
2022-07-28T22:24:26.100Z,24.62
2022-07-28T22:26:52.771Z,24.67
2022-07-28T22:29:19.438Z,24.70
2022-07-28T22:31:46.084Z,24.66
2022-07-28T22:34:12.902Z,24.59
2022-07-28T22:36:39.616Z,-148.20
2022-07-28T22:39:06.188Z,-148.20
2022-07-28T22:41:32.861Z,-148.20
2022-07-28T22:43:59.552Z,-148.20
2022-07-28T22:46:26.248Z,-148.20
2022-07-28T22:48:52.988Z,-148.20
2022-07-28T22:51:19.787Z,-148.20
2022-07-28T22:53:46.386Z,-148.20
2022-07-28T22:56:13.044Z,-148.20
2022-07-28T22:58:40.209Z,-148.20
2022-07-28T23:01:07.137Z,-148.20
2022-07-28T23:03:33.982Z,-148.20
2022-07-28T23:06:03.459Z,-148.20
2022-07-28T23:08:30.139Z,-148.20
2022-07-28T23:10:56.769Z,-148.20
2022-07-28T23:13:23.395Z,-148.20
2022-07-28T23:15:50.485Z,-148.20
2022-07-28T23:18:17.250Z,-148.20
2022-07-28T23:20:44.092Z,-148.20
2022-07-28T23:23:11.164Z,-148.20
2022-07-28T23:25:39.566Z,-148.20
2022-07-28T23:28:06.932Z,-148.20
2022-07-28T23:30:33.592Z,-148.20
2022-07-28T23:33:00.216Z,-148.20
2022-07-28T23:35:26.847Z,-148.20
2022-07-28T23:37:53.461Z,-148.20
2022-07-28T23:40:20.141Z,-148.20
2022-07-28T23:42:46.756Z,-148.20
2022-07-28T23:45:13.383Z,-148.20
2022-07-28T23:47:40.109Z,-148.20
2022-07-28T23:50:07.059Z,-148.20
2022-07-28T23:52:33.693Z,-148.20
2022-07-28T23:55:00.305Z,-148.20
2022-07-28T23:57:30.995Z,-148.20
2022-07-28T23:59:58.641Z,-148.20
